메인 페이지
METAR-TAF:

METAR-TAF

공항 :

리브르빌, 가봉

위도: 00-27N, 경도: 009-25E, 고도: 12m

현재 날씨관측

예보는 16분 전, 09:30시(UTC)에 발표되었습니다.
6kt
온도 28°C
습도 79%
기압 1012 hPa
시정 10km 이상
고도 1600ft 상공 구름 많음
고도 2000ft 상공 구름 조금, 적란운.

METAR: FOOL 180930Z 18006KT 9999 BKN016 FEW020CB 28/24 Q1012 NOSIG

시각: 10:46 (09:46 UTC)

예보

예보는 4 시간 46분 전, 05:00시(UTC)에 발표되었습니다.
예보 대상 시간: 18일 06시부터 19일 12시까지 (UTC)
남동7kt
시정 10km 이상
고도 1000ft 상공 구름 보통
고도 1500ft 상공 구름 조금, 적란운.
고도 2300ft 상공 구름 많음
일시적
18일 06시부터 18일 09시까지 (UTC)
시정: 4000m
고도 600ft 상공 구름 보통
고도 1500ft 상공 구름 조금, 적란운.
고도 3000ft 상공 구름 많음
뇌우, 비
전환 중
18일 17시부터 18일 21시까지 (UTC)
고도 1800ft 상공 구름 보통
고도 2000ft 상공 구름 조금, 적란운.
뇌우
일시적
19일 04시부터 19일 08시까지 (UTC)
시정: 3000m
고도 500ft 상공 구름 보통
고도 1600ft 상공 구름 조금, 적란운.
고도 2800ft 상공 흐림
뇌우, 비

TAF: FOOL 180500Z 1806/1912 14007KT 9999 SCT010 FEW015CB BKN023 TEMPO 1806/1809 4000 TSRA SCT006 FEW015CB BKN030 BECMG 1817/1821 TS SCT018 FEW020CB TEMPO 1904/1908 3000 TSRA SCT005 FEW016CB OVC028

4,000개 이상의 공항 관측 자료 및 예보 (METAR 및 TAF 보고).

지도상에서 검색 가능한 기상관측소가 노란 점과 빨간 점으로 표시되어 있습니다.

기상관측소 명을 보려면 표시 위로 마우스를 이동하세요.

날씨 관측과 예보를 보려면 클릭하세요.

지도 변경 : 확대하려면 엑스 표시가 있는 녹색 버튼, 축소하려면 빼기 표시가 있는 녹색 버튼, 다음 페이지의 지도를 보려면 녹색 화살표를 클릭하세요.


METAR-TAF: